Time;durP1;ratioP1;P1;durP2;ratioP2;P2;SDS_P1;SDS_P2;PMS_P1;PMS_P2;Temp;Humidity;BMP_temperature;BMP_pressure;BME280_temperature;BME280_humidity;BME280_pressure;Samples;Min_cycle;Max_cycle;Signal;HPM_P1;HPM_P2
2021/04/15 00:02:28;;;;;;;21.73;12.20;;;;;;;28.99;31.56;158784.58;1794941;80;21202;-68
2021/04/15 00:05:02;;;;;;;23.65;12.70;;;;;;;28.89;31.63;158757.92;1794907;80;21210;-68
2021/04/15 00:07:34;;;;;;;24.40;13.08;;;;;;;28.91;31.76;158764.61;1794935;80;21252;-68
2021/04/15 00:10:10;;;;;;;25.60;13.40;;;;;;;28.86;31.83;158749.97;1794974;80;21245;-68
2021/04/15 00:12:43;;;;;;;36.40;15.78;;;;;;;28.77;31.79;158727.28;1795015;80;21211;-68
2021/04/15 00:15:17;;;;;;;31.57;14.07;;;;;;;28.68;31.83;158701.97;1773038;80;21427;-68
2021/04/15 00:17:49;;;;;;;26.65;13.30;;;;;;;28.63;31.93;158688.69;1794937;80;21194;-68
2021/04/15 00:20:23;;;;;;;30.90;14.15;;;;;;;28.65;32.15;158693.97;1795045;80;22063;-68
2021/04/15 00:22:57;;;;;;;27.17;12.73;;;;;;;28.70;32.30;158708.61;1794982;80;21202;-69
2021/04/15 00:25:30;;;;;;;28.55;14.10;;;;;;;28.79;32.39;158731.25;1794929;80;21178;-68
2021/04/15 00:28:04;;;;;;;28.75;12.95;;;;;;;28.83;32.46;158741.97;1794892;80;21198;-68
2021/04/15 00:30:37;;;;;;;23.22;12.65;;;;;;;28.88;32.44;158755.25;1794927;80;21254;-68
2021/04/15 00:33:10;;;;;;;23.70;12.80;;;;;;;28.94;32.45;158771.25;1794982;80;21245;-68
2021/04/15 00:35:43;;;;;;;28.00;13.90;;;;;;;28.90;32.38;158761.94;1794973;80;21210;-68
2021/04/15 00:38:16;;;;;;;22.52;12.68;;;;;;;28.94;32.31;158772.56;1794885;79;21197;-68
2021/04/15 00:40:49;;;;;;;22.70;12.35;;;;;;;28.89;32.37;158759.28;1794760;80;22062;-68
2021/04/15 00:43:26;;;;;;;21.55;12.18;;;;;;;28.86;32.31;158751.28;1795101;80;22115;-68
2021/04/15 00:46:03;;;;;;;28.52;12.88;;;;;;;28.85;32.34;158748.61;1794887;80;21206;-68
2021/04/15 00:48:43;;;;;;;30.48;14.05;;;;;;;28.86;32.33;158749.97;1794913;80;21197;-68
2021/04/15 00:51:44;;;;;;;37.70;15.78;;;;;;;28.85;32.38;158748.61;1794934;80;21273;-68
2021/04/15 00:54:39;;;;;;;30.70;13.98;;;;;;;28.84;32.39;158744.64;1794961;80;21241;-68
2021/04/15 00:57:20;;;;;;;27.30;13.55;;;;;;;28.79;32.36;158731.25;1794313;80;21252;-68
2021/04/15 00:59:52;;;;;;;27.62;12.13;;;;;;;28.79;32.30;158731.25;1772964;80;21219;-68
2021/04/15 01:02:25;;;;;;;23.27;12.00;;;;;;;28.78;32.26;158729.94;1794936;80;21441;-68
2021/04/15 01:05:01;;;;;;;23.27;12.25;;;;;;;28.74;32.40;158717.97;1794883;80;21174;-68
2021/04/15 01:07:35;;;;;;;24.37;12.03;;;;;;;28.81;32.42;158736.63;1794926;80;21249;-68
2021/04/15 01:10:08;;;;;;;24.35;12.95;;;;;;;28.83;32.59;158741.97;1794939;80;21237;-68
2021/04/15 01:13:11;;;;;;;28.12;11.63;;;;;;;28.79;32.77;158731.25;1794984;80;21242;-68
2021/04/15 01:16:20;;;;;;;22.52;11.38;;;;;;;28.78;32.70;158729.94;1794928;80;21425;-68
2021/04/15 01:19:48;;;;;;;21.80;11.50;;;;;;;28.78;32.81;158729.94;1794938;80;21353;-68
2021/04/15 01:22:47;;;;;;;16.17;10.35;;;;;;;28.73;32.85;158716.61;1794907;80;21194;-68
2021/04/15 01:25:51;;;;;;;23.18;12.33;;;;;;;28.68;32.88;158703.33;1793395;80;21179;-68
2021/04/15 01:28:47;;;;;;;24.18;13.30;;;;;;;28.61;32.77;158684.67;1794949;80;21203;-68
2021/04/15 01:31:36;;;;;;;23.85;11.63;;;;;;;28.52;32.75;158660.72;1794975;80;21182;-68
2021/04/15 01:34:17;;;;;;;18.55;11.08;;;;;;;28.48;32.65;158650.06;1788369;80;21174;-68
2021/04/15 01:37:21;;;;;;;20.20;11.63;;;;;;;28.44;32.60;158639.45;1794880;80;21210;-68
2021/04/15 01:40:07;;;;;;;21.90;11.40;;;;;;;28.40;32.62;158626.13;1794814;80;21435;-68
2021/04/15 01:42:53;;;;;;;27.00;12.33;;;;;;;28.28;32.63;158595.55;1792092;79;21198;-68
2021/04/15 01:45:26;;;;;;;14.80;9.53;;;;;;;28.30;32.66;158599.52;1770776;80;21198;-68
2021/04/15 01:48:05;;;;;;;18.12;10.32;;;;;;;28.31;32.59;158602.19;1765548;80;21505;-68
2021/04/15 01:51:00;;;;;;;15.18;9.20;;;;;;;28.28;32.67;158594.19;1783899;80;21208;-68
2021/04/15 01:53:49;;;;;;;16.57;9.58;;;;;;;28.28;32.67;158595.55;1788103;80;22055;-68
2021/04/15 01:56:48;;;;;;;18.77;10.45;;;;;;;28.20;32.75;158572.86;1789646;80;21197;-68
2021/04/15 01:59:46;;;;;;;17.70;10.78;;;;;;;28.13;32.79;158555.56;1789766;80;21248;-69
2021/04/15 02:02:38;;;;;;;19.55;11.55;;;;;;;28.17;32.70;158566.23;1789532;80;21277;-68
2021/04/15 02:05:26;;;;;;;15.88;9.55;;;;;;;28.17;32.82;158564.87;1789563;80;21242;-68
2021/04/15 02:08:16;;;;;;;15.55;9.78;;;;;;;28.13;32.92;158555.56;1781888;79;21203;-68
2021/04/15 02:10:55;;;;;;;21.75;10.75;;;;;;;28.10;33.03;158547.58;1740256;81;21207;-68
2021/04/15 02:13:28;;;;;;;21.75;10.98;;;;;;;28.12;33.03;158551.59;1730827;83;22041;-68
2021/04/15 02:16:09;;;;;;;20.65;11.20;;;;;;;28.14;33.05;158558.23;1730832;83;21218;-69
2021/04/15 02:18:48;;;;;;;19.60;10.03;;;;;;;28.16;33.01;158563.56;1730980;83;21198;-68
2021/04/15 02:21:37;;;;;;;16.60;10.03;;;;;;;28.15;33.01;158559.53;1730785;83;21242;-68
2021/04/15 02:24:17;;;;;;;15.48;9.80;;;;;;;28.13;32.90;158554.22;1730821;83;21462;-68
2021/04/15 02:26:49;;;;;;;18.65;10.78;;;;;;;28.07;32.95;158538.27;1741294;82;21206;-68
2021/04/15 02:29:26;;;;;;;17.27;9.75;;;;;;;28.06;32.88;158535.61;1730859;83;21219;-68
2021/04/15 02:32:03;;;;;;;19.35;10.28;;;;;;;28.04;32.95;158530.28;1740399;82;21183;-68
2021/04/15 02:34:43;;;;;;;21.68;11.55;;;;;;;28.04;32.93;158531.63;1729063;83;21214;-68
2021/04/15 02:37:22;;;;;;;20.30;11.43;;;;;;;28.01;32.99;158522.33;1727930;83;21272;-68
2021/04/15 02:39:59;;;;;;;17.60;10.65;;;;;;;28.02;32.96;158524.94;1727982;83;21956;-68
2021/04/15 02:42:34;;;;;;;16.35;10.30;;;;;;;27.96;32.96;158509.00;1734261;82;21222;-68
2021/04/15 02:45:31;;;;;;;19.05;11.48;;;;;;;27.90;32.95;158493.02;1761929;81;21314;-68
2021/04/15 02:48:02;;;;;;;17.55;10.43;;;;;;;27.93;32.87;158502.38;1773760;79;21198;-68
2021/04/15 02:50:35;;;;;;;23.38;12.43;;;;;;;27.93;32.88;158502.38;1799058;79;21432;-68
2021/04/15 02:53:18;;;;;;;24.63;12.43;;;;;;;27.82;32.95;158471.75;1800309;79;21245;-68
2021/04/15 02:56:12;;;;;;;25.20;13.25;;;;;;;27.76;33.07;158455.81;1800316;79;22039;-69
2021/04/15 02:58:56;;;;;;;29.00;13.78;;;;;;;27.71;33.06;158442.50;1781590;79;21205;-68
2021/04/15 03:01:35;;;;;;;23.92;12.28;;;;;;;27.58;33.16;158407.86;1800252;79;21229;-68
2021/04/15 03:04:10;;;;;;;18.90;10.63;;;;;;;27.49;33.34;158383.94;1800324;79;21217;-68
2021/04/15 03:06:42;;;;;;;23.18;11.65;;;;;;;27.44;33.38;158370.63;1778713;79;21205;-68
2021/04/15 03:09:15;;;;;;;22.05;11.63;;;;;;;27.35;33.42;158346.70;1800281;79;21445;-68
2021/04/15 03:11:54;;;;;;;20.65;10.65;;;;;;;27.31;33.49;158334.73;1800300;79;21205;-68
2021/04/15 03:15:02;;;;;;;18.23;10.43;;;;;;;27.27;33.53;158325.45;1779092;79;21182;-68
2021/04/15 03:17:35;;;;;;;14.95;9.55;;;;;;;27.26;33.58;158322.78;1800361;79;21482;-68
2021/04/15 03:20:15;;;;;;;16.25;9.98;;;;;;;27.24;33.63;158317.45;1800268;79;21442;-70
2021/04/15 03:22:59;;;;;;;19.62;10.08;;;;;;;27.30;33.58;158332.08;1800265;79;21225;-70
2021/04/15 03:25:31;;;;;;;16.27;9.55;;;;;;;27.41;33.47;158362.69;1802195;79;22212;-72
2021/04/15 03:28:23;;;;;;;18.95;10.63;;;;;;;27.42;33.47;158363.98;1802213;79;21182;-70
2021/04/15 03:31:06;;;;;;;19.30;10.43;;;;;;;27.42;33.44;158365.34;1801999;79;21391;-69
2021/04/15 03:33:54;;;;;;;19.75;10.45;;;;;;;27.36;33.53;158348.06;1802098;79;21205;-68
2021/04/15 03:36:30;;;;;;;18.60;10.18;;;;;;;27.28;33.58;158328.11;1800252;79;21224;-67
2021/04/15 03:39:13;;;;;;;15.10;9.35;;;;;;;27.18;33.66;158301.53;1799398;79;21245;-67
2021/04/15 03:41:49;;;;;;;15.90;9.45;;;;;;;27.13;33.78;158286.91;1800102;79;21409;-70
2021/04/15 03:44:41;;;;;;;14.53;9.08;;;;;;;27.12;33.96;158284.25;1800701;79;21213;-68
2021/04/15 03:47:24;;;;;;;15.30;9.80;;;;;;;27.10;34.09;158280.22;1799361;79;21335;-67
2021/04/15 03:50:07;;;;;;;17.87;9.53;;;;;;;27.08;34.18;158274.89;1799231;79;22051;-69
2021/04/15 03:53:02;;;;;;;14.50;9.25;;;;;;;26.99;34.42;158249.63;1776035;79;21190;-69
2021/04/15 03:55:41;;;;;;;14.90;9.33;;;;;;;26.93;34.51;158233.66;1796635;79;21245;-68
2021/04/15 03:58:42;;;;;;;14.83;8.88;;;;;;;27.01;34.48;158254.95;1795522;79;21354;-67
2021/04/15 04:01:19;;;;;;;17.62;9.90;;;;;;;27.10;34.49;158278.92;1797482;79;22043;-70
2021/04/15 04:04:20;;;;;;;22.10;11.15;;;;;;;27.20;34.41;158306.81;1799151;79;21218;-73
2021/04/15 04:06:53;;;;;;;17.55;9.43;;;;;;;27.31;34.24;158334.73;1766343;79;21245;-73
2021/04/15 04:09:33;;;;;;;21.10;11.08;;;;;;;27.43;34.13;158367.95;1777658;79;21436;-67
2021/04/15 04:12:07;;;;;;;20.00;11.12;;;;;;;27.58;34.05;158407.86;1797601;79;22038;-66
2021/04/15 04:14:43;;;;;;;17.35;10.72;;;;;;;27.71;34.09;158442.50;1797471;79;21499;-68
2021/04/15 04:17:23;;;;;;;16.93;9.73;;;;;;;27.88;33.86;158489.05;1797224;79;21393;-67
2021/04/15 04:19:56;;;;;;;20.27;10.88;;;;;;;28.02;33.80;158526.30;1797468;79;21197;-67
2021/04/15 04:23:12;;;;;;;20.12;11.60;;;;;;;28.14;33.84;158558.23;1797505;79;21214;-68
2021/04/15 04:25:51;;;;;;;19.20;10.90;;;;;;;28.23;33.91;158582.22;1796608;79;21216;-68
2021/04/15 04:29:03;;;;;;;16.70;10.90;;;;;;;28.40;33.54;158627.48;1797461;79;21191;-68
2021/04/15 04:31:40;;;;;;;22.82;11.65;;;;;;;28.48;33.51;158650.06;1797622;79;21198;-67
2021/04/15 04:34:17;;;;;;;19.90;11.55;;;;;;;28.60;33.42;158680.69;1797181;79;21455;-68
2021/04/15 04:36:50;;;;;;;23.30;12.10;;;;;;;28.65;33.10;158695.33;1797487;79;21405;-68
2021/04/15 04:39:23;;;;;;;19.07;11.48;;;;;;;28.65;33.00;158693.97;1797525;79;21209;-68
2021/04/15 04:42:21;;;;;;;18.85;11.08;;;;;;;28.68;32.98;158703.33;1797454;79;21186;-68
2021/04/15 04:44:58;;;;;;;19.75;11.45;;;;;;;28.76;32.92;158724.61;1798368;79;22067;-68
2021/04/15 04:47:53;;;;;;;21.82;11.88;;;;;;;28.84;32.87;158745.94;1778936;79;21524;-68
2021/04/15 04:50:32;;;;;;;16.73;10.90;;;;;;;28.90;32.85;158760.58;1800273;79;21179;-68
2021/04/15 04:53:07;;;;;;;18.27;10.72;;;;;;;28.86;32.77;158751.28;1800344;79;21202;-68
2021/04/15 04:56:00;;;;;;;22.30;11.48;;;;;;;28.80;32.84;158733.92;1800294;79;21248;-68
2021/04/15 04:58:32;;;;;;;22.65;10.32;;;;;;;28.80;32.84;158733.92;1799471;79;21201;-68
2021/04/15 05:01:06;;;;;;;18.60;11.25;;;;;;;28.86;32.94;158751.28;1800379;79;21186;-68
2021/04/15 05:03:39;;;;;;;20.68;11.70;;;;;;;28.95;32.83;158773.92;1800230;79;21202;-68
2021/04/15 05:06:28;;;;;;;19.52;11.55;;;;;;;29.09;32.82;158812.50;1800352;79;21248;-68
2021/04/15 05:09:23;;;;;;;19.45;11.48;;;;;;;29.17;32.61;158833.80;1800194;79;21241;-68
2021/04/15 05:11:56;;;;;;;19.17;10.30;;;;;;;29.30;32.51;158867.11;1800234;79;21197;-69
2021/04/15 05:14:29;;;;;;;18.07;11.57;;;;;;;29.35;32.32;158881.75;1800275;79;21257;-68
2021/04/15 05:17:28;;;;;;;17.52;11.38;;;;;;;29.42;32.38;158900.44;1800262;79;21202;-68
2021/04/15 05:20:10;;;;;;;20.25;10.23;;;;;;;29.58;32.30;158944.37;1801865;79;21666;-74
2021/04/15 05:22:59;;;;;;;20.10;11.60;;;;;;;29.72;32.02;158981.67;1801756;79;21255;-69
2021/04/15 05:25:41;;;;;;;16.52;9.85;;;;;;;29.92;31.96;159033.63;1802119;79;22044;-71
2021/04/15 05:28:15;;;;;;;17.12;10.50;;;;;;;29.97;31.76;159047.03;1800103;79;21182;-71
2021/04/15 05:30:52;;;;;;;22.20;12.98;;;;;;;30.00;31.57;159056.34;1802057;79;21197;-72
2021/04/15 05:33:27;;;;;;;17.30;10.20;;;;;;;30.08;31.56;159077.64;1802045;79;21363;-69
2021/04/15 05:36:37;;;;;;;18.23;10.90;;;;;;;30.26;31.39;159124.28;1802072;79;21360;-69
2021/04/15 05:39:15;;;;;;;18.73;10.15;;;;;;;30.34;31.28;159148.25;1802140;79;21197;-78
2021/04/15 05:42:02;;;;;;;16.42;10.63;;;;;;;30.41;31.19;159166.94;1802014;79;21205;-72
2021/04/15 05:44:46;;;;;;;15.60;9.95;;;;;;;30.44;31.02;159173.58;1801961;79;21221;-72
2021/04/15 05:47:50;;;;;;;15.03;10.00;;;;;;;30.48;31.06;159185.56;1799221;79;21284;-72
2021/04/15 05:50:30;;;;;;;16.57;9.75;;;;;;;30.62;30.92;159222.95;1799097;79;21367;-74
2021/04/15 05:53:18;;;;;;;17.25;10.78;;;;;;;30.70;30.87;159242.95;1799268;79;21403;-68
2021/04/15 05:55:54;;;;;;;14.03;9.70;;;;;;;30.71;30.99;159245.63;1799390;79;21182;-70
2021/04/15 05:58:54;;;;;;;16.55;11.15;;;;;;;30.72;30.96;159249.59;1799426;79;21202;-68
2021/04/15 06:01:41;;;;;;;15.80;9.70;;;;;;;30.64;31.06;159226.94;1797598;79;21198;-68
2021/04/15 06:04:33;;;;;;;16.95;9.58;;;;;;;30.61;31.22;159218.97;1797377;79;21205;-68
2021/04/15 06:07:06;;;;;;;16.65;9.93;;;;;;;30.62;31.30;159221.59;1797434;79;21248;-67
2021/04/15 06:09:38;;;;;;;17.48;10.65;;;;;;;30.60;31.28;159216.30;1797456;79;21197;-67
2021/04/15 06:12:19;;;;;;;19.42;10.00;;;;;;;30.65;31.29;159230.95;1797322;79;21249;-69
2021/04/15 06:15:09;;;;;;;19.12;10.90;;;;;;;30.71;31.15;159246.92;1797518;79;21201;-68
2021/04/15 06:17:57;;;;;;;;;;;;;;;30.76;31.20;159258.92;1797758;79;21511;-68
2021/04/15 06:20:42;;;;;;;17.12;10.32;;;;;;;30.85;31.19;159282.91;1797450;79;20292;-68
2021/04/15 06:23:22;;;;;;;16.67;9.75;;;;;;;30.95;31.01;159310.91;1797490;79;21201;-68
2021/04/15 06:25:55;;;;;;;17.02;10.88;;;;;;;30.98;31.00;159318.92;1797359;79;21260;-68
2021/04/15 06:28:38;;;;;;;17.35;10.63;;;;;;;31.00;30.97;159324.27;1797528;79;21441;-68
2021/04/15 06:31:32;;;;;;;19.35;12.95;;;;;;;31.19;30.89;159374.97;1797536;79;21250;-68
2021/04/15 06:34:12;;;;;;;31.93;17.07;;;;;;;31.30;30.56;159404.30;1797506;79;21178;-68
2021/04/15 06:37:05;;;;;;;24.75;16.27;;;;;;;31.42;30.41;159436.31;1784771;79;21213;-68
2021/04/15 06:39:40;;;;;;;17.98;11.63;;;;;;;31.49;30.35;159454.95;1770325;80;21487;-68
2021/04/15 06:43:03;;;;;;;15.25;9.48;;;;;;;31.58;29.88;159479.06;1781612;80;21245;-68
2021/04/15 06:45:50;;;;;;;11.48;7.95;;;;;;;31.63;29.74;159493.72;1781553;80;21210;-68
2021/04/15 06:49:18;;;;;;;11.18;8.13;;;;;;;31.68;29.51;159505.72;1781587;80;21220;-68
2021/04/15 06:52:02;;;;;;;10.95;7.42;;;;;;;31.74;29.38;159521.70;1781635;80;22028;-68
2021/04/15 06:54:45;;;;;;;12.93;8.03;;;;;;;31.70;29.35;159511.06;1781720;80;21982;-68
2021/04/15 06:57:40;;;;;;;13.80;7.80;;;;;;;31.78;29.51;159532.39;1781727;80;21439;-68
2021/04/15 07:00:51;;;;;;;12.13;7.35;;;;;;;32.17;29.02;159636.53;1781643;80;22017;-68
2021/04/15 07:03:40;;;;;;;13.78;7.83;;;;;;;31.93;28.90;159572.42;1781782;80;21192;-68
2021/04/15 07:06:47;;;;;;;10.20;7.25;;;;;;;31.87;29.29;159557.75;1781606;80;21219;-68
2021/04/15 07:09:54;;;;;;;11.00;7.33;;;;;;;31.94;29.13;159575.09;1781629;80;21200;-68
2021/04/15 07:12:46;;;;;;;11.63;6.85;;;;;;;32.09;28.97;159616.50;1781650;80;21205;-68
2021/04/15 07:15:49;;;;;;;9.53;7.10;;;;;;;32.35;28.96;159685.84;1781629;80;22095;-68
2021/04/15 07:18:56;;;;;;;10.72;5.78;;;;;;;32.62;28.65;159759.34;1781629;80;22086;-68
2021/04/15 07:22:03;;;;;;;8.45;5.40;;;;;;;32.80;28.03;159807.38;1781623;80;21267;-68
2021/04/15 07:25:14;;;;;;;11.12;6.70;;;;;;;32.96;27.76;159850.13;1745216;80;21204;-68
2021/04/15 07:28:23;;;;;;;11.05;6.10;;;;;;;33.08;27.69;159880.80;1757388;80;21279;-68
2021/04/15 07:31:38;;;;;;;7.55;5.55;;;;;;;33.25;27.33;159927.58;1781615;80;21244;-68
2021/04/15 07:34:32;;;;;;;6.20;4.67;;;;;;;33.38;27.23;159962.31;1781600;80;21251;-68
2021/04/15 07:37:50;;;;;;;7.72;4.72;;;;;;;33.65;26.78;160034.50;1778104;80;21280;-68
2021/04/15 07:40:59;;;;;;;8.50;4.83;;;;;;;33.51;26.69;159998.34;1781505;80;21197;-68
2021/04/15 07:44:00;;;;;;;6.78;4.90;;;;;;;33.54;26.78;160006.38;1781602;80;21165;-68
2021/04/15 07:46:59;;;;;;;6.33;4.40;;;;;;;33.60;26.54;160021.11;1781716;80;21216;-68
2021/04/15 07:50:06;;;;;;;7.50;4.40;;;;;;;33.68;26.52;160042.53;1781878;80;21240;-68
2021/04/15 07:53:37;;;;;;;6.92;4.80;;;;;;;33.80;26.63;160074.53;1781865;80;21201;-68
2021/04/15 07:56:29;;;;;;;8.05;4.50;;;;;;;33.97;26.56;160119.97;1738648;82;21476;-68
2021/04/15 07:59:26;;;;;;;7.22;5.17;;;;;;;34.07;26.35;160148.06;1738545;82;21415;-68
2021/04/15 08:02:30;;;;;;;9.18;5.22;;;;;;;34.15;26.28;160170.78;1765586;80;21209;-68
2021/04/15 08:05:42;;;;;;;6.55;4.55;;;;;;;34.34;26.28;160220.22;1781888;80;21197;-68
2021/04/15 08:08:58;;;;;;;6.35;4.83;;;;;;;34.53;26.22;160271.05;1781941;80;21264;-68
2021/04/15 08:11:48;;;;;;;5.65;4.12;;;;;;;34.75;26.14;160329.91;1781840;80;21241;-68
2021/04/15 08:14:34;;;;;;;6.03;4.95;;;;;;;35.02;26.14;160402.06;1781858;80;21233;-68
2021/04/15 08:17:46;;;;;;;7.05;3.90;;;;;;;35.27;25.82;160470.34;1781887;80;22035;-68
2021/04/15 08:20:52;;;;;;;9.88;5.10;;;;;;;35.47;25.14;160523.81;1781891;80;21198;-68
2021/04/15 08:24:04;;;;;;;6.78;4.53;;;;;;;35.69;25.04;160584.06;1781395;80;21190;-68
2021/04/15 08:26:46;;;;;;;7.65;4.37;;;;;;;35.67;24.38;160578.72;1781823;80;21218;-68
2021/04/15 08:29:58;;;;;;;11.50;5.05;;;;;;;35.52;24.52;160537.27;1782000;80;21205;-68
2021/04/15 08:32:36;;;;;;;6.90;4.65;;;;;;;35.68;24.79;160581.39;1781873;80;21491;-68
2021/04/15 08:35:55;;;;;;;5.72;4.70;;;;;;;35.84;24.14;160622.84;1781854;80;21198;-68
2021/04/15 08:38:58;;;;;;;7.95;4.90;;;;;;;35.63;24.26;160566.69;1781877;80;21268;-68
2021/04/15 08:42:26;;;;;;;6.65;4.53;;;;;;;35.46;24.46;160521.13;1781872;80;21197;-68
2021/04/15 08:45:15;;;;;;;10.30;4.97;;;;;;;35.37;24.42;160498.38;1781862;80;21212;-68
2021/04/15 08:48:20;;;;;;;6.92;4.58;;;;;;;35.42;24.39;160511.78;1781802;80;21441;-68
2021/04/15 08:50:58;;;;;;;8.68;4.67;;;;;;;35.57;24.49;160551.97;1781832;80;21351;-68
2021/04/15 08:54:09;;;;;;;11.75;4.62;;;;;;;35.66;24.28;160574.66;1781865;80;21201;-68
2021/04/15 08:56:53;;;;;;;6.85;4.00;;;;;;;35.58;24.09;160554.64;1782006;80;21205;-68
2021/04/15 08:59:46;;;;;;;8.33;4.87;;;;;;;35.31;24.39;160481.00;1781893;80;21182;-68
2021/04/15 09:02:29;;;;;;;8.40;4.58;;;;;;;35.10;24.57;160424.84;1781865;80;22046;-68
2021/04/15 09:05:06;;;;;;;9.83;5.20;;;;;;;35.04;24.64;160407.41;1781864;80;21217;-68
2021/04/15 09:07:51;;;;;;;9.83;5.83;;;;;;;35.07;24.71;160415.50;1763267;80;21281;-68
2021/04/15 09:10:40;;;;;;;7.55;4.97;;;;;;;35.24;24.61;160463.61;1781923;80;21205;-68
2021/04/15 09:13:50;;;;;;;5.97;4.45;;;;;;;35.48;24.83;160527.81;1768528;80;21221;-68
2021/04/15 09:16:40;;;;;;;7.15;5.03;;;;;;;35.75;24.31;160598.78;1781889;80;21434;-68
2021/04/15 09:19:27;;;;;;;9.50;5.40;;;;;;;35.79;24.46;160610.81;1780569;80;21436;-68
2021/04/15 09:22:28;;;;;;;9.35;5.37;;;;;;;35.88;24.40;160634.88;1781788;80;21190;-68
2021/04/15 09:25:10;;;;;;;7.87;5.22;;;;;;;36.10;24.12;160693.80;1782100;80;21198;-68
2021/04/15 09:28:11;;;;;;;8.05;5.87;;;;;;;36.22;24.28;160727.28;1762507;80;22009;-68
2021/04/15 09:31:16;;;;;;;9.48;5.58;;;;;;;36.17;24.08;160713.87;1781790;80;22079;-68
2021/04/15 09:34:02;;;;;;;8.23;5.05;;;;;;;36.06;23.93;160681.75;1781828;80;21280;-68
2021/04/15 09:37:05;;;;;;;6.95;5.20;;;;;;;35.80;24.13;160612.13;1781674;80;21200;-68
2021/04/15 09:39:51;;;;;;;8.65;5.53;;;;;;;35.88;24.37;160634.88;1668258;80;21209;-68
2021/04/15 09:43:04;;;;;;;7.95;5.45;;;;;;;36.37;24.10;160767.38;1781862;80;21470;-68
2021/04/15 09:45:57;;;;;;;7.80;5.62;;;;;;;36.66;23.94;160845.08;1781800;80;21422;-68
2021/04/15 09:48:34;;;;;;;12.37;6.12;;;;;;;36.81;23.77;160883.89;1781773;80;21217;-68
2021/04/15 09:51:23;;;;;;;8.28;5.60;;;;;;;36.73;23.84;160863.80;1771799;80;22043;-68
2021/04/15 09:54:35;;;;;;;10.13;6.00;;;;;;;36.70;23.60;160855.75;1771281;80;21256;-68
2021/04/15 09:57:49;;;;;;;12.30;6.45;;;;;;;36.71;23.82;160857.13;1786105;80;21464;-68
2021/04/15 10:00:42;;;;;;;7.55;5.53;;;;;;;37.03;23.91;160944.20;1786193;80;21697;-68
2021/04/15 10:04:01;;;;;;;7.85;5.30;;;;;;;37.37;23.35;161035.30;1786042;80;21980;-68
2021/04/15 10:06:46;;;;;;;9.15;5.55;;;;;;;37.41;23.26;161047.34;1786181;80;21186;-68
2021/04/15 10:09:53;;;;;;;9.18;5.83;;;;;;;37.25;23.23;161004.41;1786116;80;22049;-68
2021/04/15 10:13:07;;;;;;;8.85;5.58;;;;;;;37.11;23.30;160965.59;1786291;80;21455;-68
2021/04/15 10:15:54;;;;;;;7.33;4.97;;;;;;;36.97;23.30;160926.80;1786043;80;21693;-68
2021/04/15 10:19:01;;;;;;;8.13;5.78;;;;;;;36.96;23.42;160924.11;1784316;80;21193;-68
2021/04/15 10:21:54;;;;;;;9.98;6.40;;;;;;;36.74;23.51;160866.48;1784230;80;21947;-68
2021/04/15 10:24:47;;;;;;;9.40;5.60;;;;;;;36.47;23.64;160794.19;1784252;80;21198;-69
2021/04/15 10:27:59;;;;;;;7.35;5.28;;;;;;;36.43;23.71;160783.47;1784237;80;21202;-67
2021/04/15 10:31:12;;;;;;;12.70;7.78;;;;;;;36.29;23.60;160744.63;1773938;80;21201;-67
2021/04/15 10:33:58;;;;;;;9.18;6.30;;;;;;;36.12;23.79;160699.16;1784217;80;21186;-67
2021/04/15 10:36:59;;;;;;;7.25;5.35;;;;;;;36.29;23.85;160745.98;1784200;79;21472;-67
2021/04/15 10:40:02;;;;;;;7.62;5.17;;;;;;;36.54;23.61;160811.59;1784317;80;21181;-68
2021/04/15 10:43:14;;;;;;;7.35;5.08;;;;;;;36.46;23.01;160791.50;1784292;80;21178;-68
2021/04/15 10:46:10;;;;;;;9.18;6.55;;;;;;;36.28;22.91;160743.31;1784232;80;21253;-69
2021/04/15 10:48:58;;;;;;;13.90;7.25;;;;;;;36.40;23.32;160775.42;1784268;80;21232;-68
2021/04/15 10:52:03;;;;;;;10.60;6.35;;;;;;;36.38;23.34;160768.75;1782491;80;22046;-68
2021/04/15 10:54:44;;;;;;;10.93;5.80;;;;;;;36.32;23.36;160754.03;1780918;80;22038;-68
2021/04/15 10:57:28;;;;;;;10.58;6.08;;;;;;;36.28;23.59;160742.00;1781917;80;21244;-68
2021/04/15 11:00:14;;;;;;;7.37;5.85;;;;;;;35.99;23.77;160663.05;1781797;80;21186;-68
2021/04/15 11:02:53;;;;;;;9.33;5.35;;;;;;;35.65;24.10;160573.34;1773779;80;22034;-68
2021/04/15 11:05:48;;;;;;;15.08;7.80;;;;;;;35.22;24.31;160456.94;1771073;80;21194;-68
2021/04/15 11:08:31;;;;;;;10.78;7.35;;;;;;;34.88;24.76;160365.97;1771058;81;21499;-68
2021/04/15 11:11:11;;;;;;;14.07;8.15;;;;;;;34.64;24.98;160300.50;1771122;81;21202;-68
2021/04/15 11:13:44;;;;;;;10.15;6.67;;;;;;;34.52;25.14;160268.38;1771164;81;21179;-68
2021/04/15 11:16:22;;;;;;;9.03;5.47;;;;;;;34.43;25.25;160245.63;1771269;81;21171;-68
2021/04/15 11:18:55;;;;;;;9.30;5.60;;;;;;;34.35;25.40;160224.27;1771079;81;21214;-70
2021/04/15 11:21:35;;;;;;;11.15;5.85;;;;;;;34.17;25.77;160176.12;1773044;79;21278;-71
2021/04/15 11:24:34;;;;;;;12.33;6.10;;;;;;;33.99;25.92;160125.33;1772975;81;21210;-70
2021/04/15 11:27:07;;;;;;;12.53;5.80;;;;;;;33.74;26.19;160059.84;1773104;81;21992;-72
2021/04/15 11:29:44;;;;;;;16.37;6.90;;;;;;;33.58;26.63;160017.08;1773637;80;21921;-68
2021/04/15 11:32:42;;;;;;;8.65;5.78;;;;;;;33.43;26.99;159977.00;1773464;81;21182;-70
2021/04/15 11:35:20;;;;;;;9.30;6.33;;;;;;;33.37;27.05;159959.62;1787618;80;21364;-71
2021/04/15 11:38:17;;;;;;;9.00;5.92;;;;;;;33.26;27.25;159930.25;1772862;81;21419;-69
2021/04/15 11:40:54;;;;;;;9.95;6.22;;;;;;;33.20;27.05;159915.56;1774228;81;21221;-76
2021/04/15 11:43:52;;;;;;;8.65;5.95;;;;;;;33.15;27.03;159899.56;1771273;80;21198;-70
2021/04/15 11:47:04;;;;;;;8.50;5.47;;;;;;;33.13;27.25;159895.53;1770507;80;21218;-70
2021/04/15 11:49:47;;;;;;;8.33;5.62;;;;;;;33.23;27.31;159922.22;1773741;81;21372;-70
2021/04/15 11:52:36;;;;;;;9.43;5.62;;;;;;;33.30;26.94;159942.27;1777789;80;22069;-71
2021/04/15 11:55:30;;;;;;;10.45;6.40;;;;;;;33.35;26.94;159954.28;1780082;80;21781;-71
2021/04/15 11:58:06;;;;;;;7.90;5.58;;;;;;;33.46;26.91;159983.66;1781689;80;21570;-72
2021/04/15 12:00:47;;;;;;;9.13;5.72;;;;;;;33.51;26.79;159998.34;1777012;80;21866;-71
2021/04/15 12:03:28;;;;;;;8.85;5.95;;;;;;;33.55;26.64;160009.05;1774748;80;21218;-75
2021/04/15 12:06:06;;;;;;;;;;;;;;;33.55;26.67;160007.73;1778147;81;21674;-72
2021/04/15 12:08:39;;;;;;;8.40;5.60;;;;;;;33.52;26.68;160001.02;1740873;82;20360;-72
2021/04/15 12:11:26;;;;;;;7.83;5.53;;;;;;;33.53;26.83;160003.70;1701770;83;21491;-72
2021/04/15 12:14:09;;;;;;;7.25;5.35;;;;;;;33.57;26.77;160013.03;1721972;83;21227;-72
2021/04/15 12:17:04;;;;;;;10.35;5.78;;;;;;;33.64;26.79;160033.13;1721981;83;21886;-72
2021/04/15 12:20:04;;;;;;;15.53;9.90;;;;;;;33.79;26.57;160073.22;1722057;83;21589;-71
2021/04/15 12:22:57;;;;;;;10.28;6.37;;;;;;;33.81;26.57;160077.22;1662190;83;21230;-71
2021/04/15 12:25:47;;;;;;;12.55;6.55;;;;;;;33.88;26.59;160097.25;1721900;83;21195;-71
2021/04/15 12:28:33;;;;;;;12.10;6.25;;;;;;;33.87;26.66;160093.27;1730284;83;21218;-71
2021/04/15 12:31:11;;;;;;;13.83;7.03;;;;;;;34.01;26.64;160132.00;1730213;83;21241;-71
2021/04/15 12:34:14;;;;;;;10.50;6.05;;;;;;;34.28;26.45;160205.53;1725902;83;22124;-71
2021/04/15 12:36:54;;;;;;;9.08;5.75;;;;;;;34.53;26.18;160272.36;1730403;82;21229;-71
2021/04/15 12:39:29;;;;;;;9.60;5.83;;;;;;;34.69;25.84;160313.83;1730292;83;21187;-71
2021/04/15 12:42:01;;;;;;;9.70;5.87;;;;;;;34.84;25.83;160355.27;1729569;82;21680;-71
2021/04/15 12:44:34;;;;;;;10.48;6.12;;;;;;;35.13;25.27;160431.56;1710135;83;21206;-71
2021/04/15 12:47:07;;;;;;;10.75;5.83;;;;;;;35.33;25.03;160487.72;1730350;82;21468;-71
2021/04/15 12:49:39;;;;;;;10.98;6.08;;;;;;;35.55;24.82;160546.61;1730366;83;21217;-71
2021/04/15 12:52:18;;;;;;;10.85;6.05;;;;;;;35.84;24.64;160624.16;1730193;82;21916;-71
2021/04/15 12:54:46;;;;;;;13.75;5.75;;;;;;;36.16;24.34;160709.87;1730486;82;21292;-71